sensor_id;sensor_type;location;lat;lon;timestamp;temperature;humidity
27671;DHT22;15077;49.704;9.908;2022-07-23T00:00:19;27.50;43.30
27671;DHT22;15077;49.704;9.908;2022-07-23T00:02:45;27.40;43.40
27671;DHT22;15077;49.704;9.908;2022-07-23T00:05:11;27.40;43.40
27671;DHT22;15077;49.704;9.908;2022-07-23T00:07:37;27.40;43.60
27671;DHT22;15077;49.704;9.908;2022-07-23T00:10:04;27.30;43.60
27671;DHT22;15077;49.704;9.908;2022-07-23T00:12:30;27.30;43.70
27671;DHT22;15077;49.704;9.908;2022-07-23T00:14:56;27.30;43.80
27671;DHT22;15077;49.704;9.908;2022-07-23T00:17:22;27.20;43.80
27671;DHT22;15077;49.704;9.908;2022-07-23T00:19:48;27.20;43.90
27671;DHT22;15077;49.704;9.908;2022-07-23T00:22:14;27.20;43.90
27671;DHT22;15077;49.704;9.908;2022-07-23T00:24:39;27.20;44.10
27671;DHT22;15077;49.704;9.908;2022-07-23T00:27:05;27.10;44.10
27671;DHT22;15077;49.704;9.908;2022-07-23T00:29:31;27.10;44.10
27671;DHT22;15077;49.704;9.908;2022-07-23T00:31:57;27.10;44.30
27671;DHT22;15077;49.704;9.908;2022-07-23T00:34:23;27.10;44.30
27671;DHT22;15077;49.704;9.908;2022-07-23T00:36:49;27.00;44.30
27671;DHT22;15077;49.704;9.908;2022-07-23T00:39:14;27.00;44.30
27671;DHT22;15077;49.704;9.908;2022-07-23T00:41:40;27.00;44.40
27671;DHT22;15077;49.704;9.908;2022-07-23T00:44:16;27.00;44.50
27671;DHT22;15077;49.704;9.908;2022-07-23T00:46:48;27.00;44.60
27671;DHT22;15077;49.704;9.908;2022-07-23T00:49:28;26.90;44.50
27671;DHT22;15077;49.704;9.908;2022-07-23T00:51:56;26.90;44.60
27671;DHT22;15077;49.704;9.908;2022-07-23T00:54:24;26.90;44.70
27671;DHT22;15077;49.704;9.908;2022-07-23T00:56:51;26.80;44.70
27671;DHT22;15077;49.704;9.908;2022-07-23T00:59:17;26.80;44.70
27671;DHT22;15077;49.704;9.908;2022-07-23T01:01:43;26.80;44.70
27671;DHT22;15077;49.704;9.908;2022-07-23T01:04:10;26.80;44.90
27671;DHT22;15077;49.704;9.908;2022-07-23T01:06:37;26.80;45.00
27671;DHT22;15077;49.704;9.908;2022-07-23T01:09:07;26.70;44.90
27671;DHT22;15077;49.704;9.908;2022-07-23T01:11:34;26.70;45.00
27671;DHT22;15077;49.704;9.908;2022-07-23T01:14:12;26.70;45.10
27671;DHT22;15077;49.704;9.908;2022-07-23T01:16:41;26.70;45.20
27671;DHT22;15077;49.704;9.908;2022-07-23T01:19:08;26.60;45.10
27671;DHT22;15077;49.704;9.908;2022-07-23T01:21:37;26.60;45.10
27671;DHT22;15077;49.704;9.908;2022-07-23T01:24:05;26.50;45.20
27671;DHT22;15077;49.704;9.908;2022-07-23T01:26:32;26.50;45.20
27671;DHT22;15077;49.704;9.908;2022-07-23T01:28:58;26.50;45.30
27671;DHT22;15077;49.704;9.908;2022-07-23T01:31:24;26.50;45.40
27671;DHT22;15077;49.704;9.908;2022-07-23T01:33:50;26.50;45.50
27671;DHT22;15077;49.704;9.908;2022-07-23T01:36:16;26.40;45.60
27671;DHT22;15077;49.704;9.908;2022-07-23T01:38:41;26.40;45.60
27671;DHT22;15077;49.704;9.908;2022-07-23T01:41:07;26.40;45.60
27671;DHT22;15077;49.704;9.908;2022-07-23T01:43:33;26.40;45.60
27671;DHT22;15077;49.704;9.908;2022-07-23T01:45:59;26.40;45.60
27671;DHT22;15077;49.704;9.908;2022-07-23T01:48:26;26.30;45.60
27671;DHT22;15077;49.704;9.908;2022-07-23T01:50:51;26.30;45.80
27671;DHT22;15077;49.704;9.908;2022-07-23T01:53:17;26.30;45.80
27671;DHT22;15077;49.704;9.908;2022-07-23T01:55:44;26.30;45.80
27671;DHT22;15077;49.704;9.908;2022-07-23T01:58:10;26.30;45.90
27671;DHT22;15077;49.704;9.908;2022-07-23T02:00:36;26.30;45.90
27671;DHT22;15077;49.704;9.908;2022-07-23T02:03:02;26.20;45.80
27671;DHT22;15077;49.704;9.908;2022-07-23T02:05:28;26.20;45.90
27671;DHT22;15077;49.704;9.908;2022-07-23T02:07:55;26.20;46.00
27671;DHT22;15077;49.704;9.908;2022-07-23T02:10:21;26.10;46.00
27671;DHT22;15077;49.704;9.908;2022-07-23T02:12:47;26.10;46.10
27671;DHT22;15077;49.704;9.908;2022-07-23T02:15:13;26.00;46.20
27671;DHT22;15077;49.704;9.908;2022-07-23T02:17:40;26.00;46.20
27671;DHT22;15077;49.704;9.908;2022-07-23T02:20:07;26.00;46.40
27671;DHT22;15077;49.704;9.908;2022-07-23T02:22:34;26.00;46.40
27671;DHT22;15077;49.704;9.908;2022-07-23T02:25:02;26.00;46.40
27671;DHT22;15077;49.704;9.908;2022-07-23T02:27:32;26.00;46.50
27671;DHT22;15077;49.704;9.908;2022-07-23T02:29:58;26.00;46.40
27671;DHT22;15077;49.704;9.908;2022-07-23T02:32:24;25.90;46.40
27671;DHT22;15077;49.704;9.908;2022-07-23T02:34:50;25.90;46.50
27671;DHT22;15077;49.704;9.908;2022-07-23T02:37:16;25.90;46.50
27671;DHT22;15077;49.704;9.908;2022-07-23T02:39:43;25.90;46.60
27671;DHT22;15077;49.704;9.908;2022-07-23T02:42:09;25.80;46.50
27671;DHT22;15077;49.704;9.908;2022-07-23T02:44:35;25.80;47.10
27671;DHT22;15077;49.704;9.908;2022-07-23T02:47:01;25.80;46.60
27671;DHT22;15077;49.704;9.908;2022-07-23T02:49:27;25.80;46.50
27671;DHT22;15077;49.704;9.908;2022-07-23T02:51:53;25.70;46.50
27671;DHT22;15077;49.704;9.908;2022-07-23T02:54:19;25.70;46.70
27671;DHT22;15077;49.704;9.908;2022-07-23T02:56:45;25.70;46.70
27671;DHT22;15077;49.704;9.908;2022-07-23T02:59:11;25.70;46.80
27671;DHT22;15077;49.704;9.908;2022-07-23T03:01:37;25.60;46.70
27671;DHT22;15077;49.704;9.908;2022-07-23T03:04:03;25.60;47.50
27671;DHT22;15077;49.704;9.908;2022-07-23T03:06:29;25.60;47.00
27671;DHT22;15077;49.704;9.908;2022-07-23T03:08:55;25.60;47.10
27671;DHT22;15077;49.704;9.908;2022-07-23T03:11:21;25.50;47.60
27671;DHT22;15077;49.704;9.908;2022-07-23T03:13:49;25.50;47.00
27671;DHT22;15077;49.704;9.908;2022-07-23T03:16:15;25.50;47.20
27671;DHT22;15077;49.704;9.908;2022-07-23T03:18:41;25.40;47.10
27671;DHT22;15077;49.704;9.908;2022-07-23T03:21:07;25.40;47.20
27671;DHT22;15077;49.704;9.908;2022-07-23T03:23:33;25.40;47.10
27671;DHT22;15077;49.704;9.908;2022-07-23T03:25:59;25.30;47.20
27671;DHT22;15077;49.704;9.908;2022-07-23T03:28:24;25.30;47.20
27671;DHT22;15077;49.704;9.908;2022-07-23T03:30:50;25.30;47.30
27671;DHT22;15077;49.704;9.908;2022-07-23T03:33:18;25.20;47.30
27671;DHT22;15077;49.704;9.908;2022-07-23T03:35:46;25.20;47.40
27671;DHT22;15077;49.704;9.908;2022-07-23T03:38:12;25.20;47.40
27671;DHT22;15077;49.704;9.908;2022-07-23T03:40:38;25.20;47.40
27671;DHT22;15077;49.704;9.908;2022-07-23T03:43:04;25.20;47.60
27671;DHT22;15077;49.704;9.908;2022-07-23T03:45:31;25.10;47.70
27671;DHT22;15077;49.704;9.908;2022-07-23T03:47:57;25.10;47.60
27671;DHT22;15077;49.704;9.908;2022-07-23T03:50:24;25.00;47.70
27671;DHT22;15077;49.704;9.908;2022-07-23T03:52:50;25.00;47.90
27671;DHT22;15077;49.704;9.908;2022-07-23T03:55:16;24.90;48.20
27671;DHT22;15077;49.704;9.908;2022-07-23T03:57:42;24.90;48.20
27671;DHT22;15077;49.704;9.908;2022-07-23T04:00:09;24.80;48.30
27671;DHT22;15077;49.704;9.908;2022-07-23T04:02:37;24.80;48.60
27671;DHT22;15077;49.704;9.908;2022-07-23T04:05:03;24.70;48.70
27671;DHT22;15077;49.704;9.908;2022-07-23T04:07:30;24.70;48.80
27671;DHT22;15077;49.704;9.908;2022-07-23T04:09:56;24.60;49.20
27671;DHT22;15077;49.704;9.908;2022-07-23T04:12:22;24.60;49.00
27671;DHT22;15077;49.704;9.908;2022-07-23T04:14:49;24.50;49.00
27671;DHT22;15077;49.704;9.908;2022-07-23T04:17:15;24.50;49.00
27671;DHT22;15077;49.704;9.908;2022-07-23T04:19:41;24.50;49.00
27671;DHT22;15077;49.704;9.908;2022-07-23T04:22:09;24.50;49.00
27671;DHT22;15077;49.704;9.908;2022-07-23T04:24:37;24.50;49.20
27671;DHT22;15077;49.704;9.908;2022-07-23T04:27:03;24.50;49.20
27671;DHT22;15077;49.704;9.908;2022-07-23T04:29:29;24.50;49.30
27671;DHT22;15077;49.704;9.908;2022-07-23T04:31:55;24.50;49.20
27671;DHT22;15077;49.704;9.908;2022-07-23T04:34:21;24.50;49.20
27671;DHT22;15077;49.704;9.908;2022-07-23T04:36:47;24.50;49.10
27671;DHT22;15077;49.704;9.908;2022-07-23T04:39:14;24.50;49.40
27671;DHT22;15077;49.704;9.908;2022-07-23T04:41:39;24.50;49.30
27671;DHT22;15077;49.704;9.908;2022-07-23T04:44:05;24.50;49.30
27671;DHT22;15077;49.704;9.908;2022-07-23T04:46:31;24.50;49.30
27671;DHT22;15077;49.704;9.908;2022-07-23T04:48:57;24.50;49.20
27671;DHT22;15077;49.704;9.908;2022-07-23T04:51:24;24.50;49.40
27671;DHT22;15077;49.704;9.908;2022-07-23T04:53:50;24.60;49.50
27671;DHT22;15077;49.704;9.908;2022-07-23T04:56:16;24.60;49.60
27671;DHT22;15077;49.704;9.908;2022-07-23T04:58:42;24.60;49.70
27671;DHT22;15077;49.704;9.908;2022-07-23T05:01:08;24.70;49.90
27671;DHT22;15077;49.704;9.908;2022-07-23T05:03:34;24.70;50.00
27671;DHT22;15077;49.704;9.908;2022-07-23T05:06:01;24.70;49.90
27671;DHT22;15077;49.704;9.908;2022-07-23T05:08:28;24.70;50.20
27671;DHT22;15077;49.704;9.908;2022-07-23T05:10:54;24.70;50.00
27671;DHT22;15077;49.704;9.908;2022-07-23T05:13:20;24.70;50.40
27671;DHT22;15077;49.704;9.908;2022-07-23T05:15:46;24.70;50.40
27671;DHT22;15077;49.704;9.908;2022-07-23T05:18:12;24.80;50.80
27671;DHT22;15077;49.704;9.908;2022-07-23T05:20:38;24.80;50.90
27671;DHT22;15077;49.704;9.908;2022-07-23T05:23:04;24.80;50.90
27671;DHT22;15077;49.704;9.908;2022-07-23T05:25:30;24.80;50.70
27671;DHT22;15077;49.704;9.908;2022-07-23T05:27:56;24.80;50.90
27671;DHT22;15077;49.704;9.908;2022-07-23T05:30:22;24.80;51.00
27671;DHT22;15077;49.704;9.908;2022-07-23T05:32:47;24.80;51.60
27671;DHT22;15077;49.704;9.908;2022-07-23T05:35:13;24.80;51.40
27671;DHT22;15077;49.704;9.908;2022-07-23T05:37:39;24.80;51.40
27671;DHT22;15077;49.704;9.908;2022-07-23T05:40:07;24.80;51.40
27671;DHT22;15077;49.704;9.908;2022-07-23T05:42:35;24.80;51.50
27671;DHT22;15077;49.704;9.908;2022-07-23T05:45:04;24.80;51.60
27671;DHT22;15077;49.704;9.908;2022-07-23T05:47:47;24.80;51.70
27671;DHT22;15077;49.704;9.908;2022-07-23T05:50:15;24.80;52.10
27671;DHT22;15077;49.704;9.908;2022-07-23T05:52:42;24.80;52.10
27671;DHT22;15077;49.704;9.908;2022-07-23T05:55:10;24.80;51.80
27671;DHT22;15077;49.704;9.908;2022-07-23T05:57:37;24.80;52.10
27671;DHT22;15077;49.704;9.908;2022-07-23T06:00:05;24.80;52.30
27671;DHT22;15077;49.704;9.908;2022-07-23T06:02:32;24.80;52.50
27671;DHT22;15077;49.704;9.908;2022-07-23T06:04:58;24.80;52.70
27671;DHT22;15077;49.704;9.908;2022-07-23T06:07:24;24.80;52.90
27671;DHT22;15077;49.704;9.908;2022-07-23T06:09:50;24.70;53.40
27671;DHT22;15077;49.704;9.908;2022-07-23T06:12:18;24.70;53.60
27671;DHT22;15077;49.704;9.908;2022-07-23T06:14:44;24.70;53.90
27671;DHT22;15077;49.704;9.908;2022-07-23T06:17:10;24.70;54.20
27671;DHT22;15077;49.704;9.908;2022-07-23T06:19:36;24.60;54.00
27671;DHT22;15077;49.704;9.908;2022-07-23T06:22:03;24.60;54.40
27671;DHT22;15077;49.704;9.908;2022-07-23T06:24:29;24.60;54.80
27671;DHT22;15077;49.704;9.908;2022-07-23T06:26:54;24.60;54.80
27671;DHT22;15077;49.704;9.908;2022-07-23T06:29:20;24.60;54.80
27671;DHT22;15077;49.704;9.908;2022-07-23T06:31:46;24.60;54.90
27671;DHT22;15077;49.704;9.908;2022-07-23T06:34:13;24.60;55.00
27671;DHT22;15077;49.704;9.908;2022-07-23T06:36:39;24.60;55.10
27671;DHT22;15077;49.704;9.908;2022-07-23T06:39:04;24.60;55.30
27671;DHT22;15077;49.704;9.908;2022-07-23T06:41:30;24.70;55.40
27671;DHT22;15077;49.704;9.908;2022-07-23T06:43:56;24.70;55.40
27671;DHT22;15077;49.704;9.908;2022-07-23T06:46:22;24.70;55.60
27671;DHT22;15077;49.704;9.908;2022-07-23T06:48:48;24.70;56.30
27671;DHT22;15077;49.704;9.908;2022-07-23T06:51:13;24.70;55.50
27671;DHT22;15077;49.704;9.908;2022-07-23T06:53:39;24.70;55.50
27671;DHT22;15077;49.704;9.908;2022-07-23T06:56:05;24.70;55.60
27671;DHT22;15077;49.704;9.908;2022-07-23T06:58:31;24.70;55.50
27671;DHT22;15077;49.704;9.908;2022-07-23T07:00:56;24.70;55.70
27671;DHT22;15077;49.704;9.908;2022-07-23T07:03:22;24.70;55.30
27671;DHT22;15077;49.704;9.908;2022-07-23T07:05:48;24.70;55.30
27671;DHT22;15077;49.704;9.908;2022-07-23T07:08:15;24.60;55.40
27671;DHT22;15077;49.704;9.908;2022-07-23T07:10:41;24.60;55.40
27671;DHT22;15077;49.704;9.908;2022-07-23T07:13:07;24.60;55.30
27671;DHT22;15077;49.704;9.908;2022-07-23T07:15:33;24.60;55.30
27671;DHT22;15077;49.704;9.908;2022-07-23T07:17:59;24.60;55.30
27671;DHT22;15077;49.704;9.908;2022-07-23T07:20:25;24.60;55.30
27671;DHT22;15077;49.704;9.908;2022-07-23T07:22:52;24.60;55.60
27671;DHT22;15077;49.704;9.908;2022-07-23T07:25:18;24.60;55.50
27671;DHT22;15077;49.704;9.908;2022-07-23T07:27:43;24.60;55.60
27671;DHT22;15077;49.704;9.908;2022-07-23T07:30:11;24.60;55.50
27671;DHT22;15077;49.704;9.908;2022-07-23T07:32:38;24.70;55.70
27671;DHT22;15077;49.704;9.908;2022-07-23T07:35:04;24.70;55.90
27671;DHT22;15077;49.704;9.908;2022-07-23T07:37:31;24.70;55.80
27671;DHT22;15077;49.704;9.908;2022-07-23T07:39:57;24.80;56.00
27671;DHT22;15077;49.704;9.908;2022-07-23T07:42:23;24.80;55.80
27671;DHT22;15077;49.704;9.908;2022-07-23T07:44:49;24.80;56.00
27671;DHT22;15077;49.704;9.908;2022-07-23T07:47:15;24.90;55.90
27671;DHT22;15077;49.704;9.908;2022-07-23T07:49:41;24.90;55.90
27671;DHT22;15077;49.704;9.908;2022-07-23T07:52:08;25.00;55.70
27671;DHT22;15077;49.704;9.908;2022-07-23T07:54:34;25.10;55.70
27671;DHT22;15077;49.704;9.908;2022-07-23T07:57:00;25.20;56.00
27671;DHT22;15077;49.704;9.908;2022-07-23T07:59:26;25.20;56.00
27671;DHT22;15077;49.704;9.908;2022-07-23T08:01:52;25.30;56.10
27671;DHT22;15077;49.704;9.908;2022-07-23T08:04:18;25.30;56.00
27671;DHT22;15077;49.704;9.908;2022-07-23T08:06:44;25.40;56.80
27671;DHT22;15077;49.704;9.908;2022-07-23T08:09:10;25.50;56.30
27671;DHT22;15077;49.704;9.908;2022-07-23T08:11:36;25.60;56.30
27671;DHT22;15077;49.704;9.908;2022-07-23T08:14:02;25.60;56.10
27671;DHT22;15077;49.704;9.908;2022-07-23T08:16:28;25.70;56.10
27671;DHT22;15077;49.704;9.908;2022-07-23T08:18:53;25.80;56.00
27671;DHT22;15077;49.704;9.908;2022-07-23T08:21:19;25.80;55.70
27671;DHT22;15077;49.704;9.908;2022-07-23T08:23:45;25.90;55.60
27671;DHT22;15077;49.704;9.908;2022-07-23T08:26:11;25.90;55.50
27671;DHT22;15077;49.704;9.908;2022-07-23T08:28:38;25.90;55.40
27671;DHT22;15077;49.704;9.908;2022-07-23T08:31:04;25.90;55.40
27671;DHT22;15077;49.704;9.908;2022-07-23T08:33:31;25.90;55.30
27671;DHT22;15077;49.704;9.908;2022-07-23T08:35:57;25.90;55.40
27671;DHT22;15077;49.704;9.908;2022-07-23T08:38:24;25.90;55.20
27671;DHT22;15077;49.704;9.908;2022-07-23T08:40:55;26.00;55.20
27671;DHT22;15077;49.704;9.908;2022-07-23T08:43:27;26.00;55.40
27671;DHT22;15077;49.704;9.908;2022-07-23T08:45:56;26.00;55.40
27671;DHT22;15077;49.704;9.908;2022-07-23T08:48:29;26.00;55.30
27671;DHT22;15077;49.704;9.908;2022-07-23T08:51:01;26.10;55.50
27671;DHT22;15077;49.704;9.908;2022-07-23T08:53:29;26.10;55.40
27671;DHT22;15077;49.704;9.908;2022-07-23T08:55:59;26.10;55.30
27671;DHT22;15077;49.704;9.908;2022-07-23T08:58:27;26.20;55.50
27671;DHT22;15077;49.704;9.908;2022-07-23T09:00:53;26.20;55.40
27671;DHT22;15077;49.704;9.908;2022-07-23T09:03:20;26.30;55.50
27671;DHT22;15077;49.704;9.908;2022-07-23T09:05:51;26.30;55.40
27671;DHT22;15077;49.704;9.908;2022-07-23T09:08:19;26.40;55.50
27671;DHT22;15077;49.704;9.908;2022-07-23T09:10:53;26.40;55.40
27671;DHT22;15077;49.704;9.908;2022-07-23T09:16:17;26.50;55.00
27671;DHT22;15077;49.704;9.908;2022-07-23T09:19:01;26.60;55.00
27671;DHT22;15077;49.704;9.908;2022-07-23T09:21:38;26.60;55.10
27671;DHT22;15077;49.704;9.908;2022-07-23T09:24:08;26.60;55.40
27671;DHT22;15077;49.704;9.908;2022-07-23T09:26:40;26.70;55.40
27671;DHT22;15077;49.704;9.908;2022-07-23T09:29:20;26.70;55.60
27671;DHT22;15077;49.704;9.908;2022-07-23T09:31:57;26.80;55.70
27671;DHT22;15077;49.704;9.908;2022-07-23T09:34:35;26.90;55.40
27671;DHT22;15077;49.704;9.908;2022-07-23T09:37:19;27.00;55.50
27671;DHT22;15077;49.704;9.908;2022-07-23T09:39:47;27.20;55.60
27671;DHT22;15077;49.704;9.908;2022-07-23T09:42:24;27.30;55.50
27671;DHT22;15077;49.704;9.908;2022-07-23T09:44:55;27.40;55.20
27671;DHT22;15077;49.704;9.908;2022-07-23T09:47:24;27.60;54.80
27671;DHT22;15077;49.704;9.908;2022-07-23T09:50:05;27.70;54.30
27671;DHT22;15077;49.704;9.908;2022-07-23T09:52:47;27.80;54.00
27671;DHT22;15077;49.704;9.908;2022-07-23T09:55:18;27.90;53.90
27671;DHT22;15077;49.704;9.908;2022-07-23T09:57:45;28.00;53.50
27671;DHT22;15077;49.704;9.908;2022-07-23T10:00:15;28.00;53.50
27671;DHT22;15077;49.704;9.908;2022-07-23T10:02:41;28.10;53.40
27671;DHT22;15077;49.704;9.908;2022-07-23T10:05:12;28.20;53.10
27671;DHT22;15077;49.704;9.908;2022-07-23T10:07:39;28.30;53.30
27671;DHT22;15077;49.704;9.908;2022-07-23T10:10:07;28.50;52.60
27671;DHT22;15077;49.704;9.908;2022-07-23T10:12:34;28.60;52.60
27671;DHT22;15077;49.704;9.908;2022-07-23T10:15:02;28.60;52.20
27671;DHT22;15077;49.704;9.908;2022-07-23T10:17:30;28.70;51.90
27671;DHT22;15077;49.704;9.908;2022-07-23T10:19:56;28.70;51.90
27671;DHT22;15077;49.704;9.908;2022-07-23T10:22:31;28.80;51.80
27671;DHT22;15077;49.704;9.908;2022-07-23T10:25:27;28.90;51.60
27671;DHT22;15077;49.704;9.908;2022-07-23T10:31:35;29.10;51.40
27671;DHT22;15077;49.704;9.908;2022-07-23T10:37:30;29.30;51.60
27671;DHT22;15077;49.704;9.908;2022-07-23T10:40:22;29.40;51.40
27671;DHT22;15077;49.704;9.908;2022-07-23T10:42:52;29.60;50.90
27671;DHT22;15077;49.704;9.908;2022-07-23T10:45:35;29.70;50.60
27671;DHT22;15077;49.704;9.908;2022-07-23T10:48:16;29.80;50.30
27671;DHT22;15077;49.704;9.908;2022-07-23T10:59:23;30.30;50.10
27671;DHT22;15077;49.704;9.908;2022-07-23T11:01:50;30.50;49.90
27671;DHT22;15077;49.704;9.908;2022-07-23T11:04:16;30.70;49.60
27671;DHT22;15077;49.704;9.908;2022-07-23T11:11:50;31.00;48.80
27671;DHT22;15077;49.704;9.908;2022-07-23T11:14:58;31.10;48.60
27671;DHT22;15077;49.704;9.908;2022-07-23T11:17:36;31.30;48.10
27671;DHT22;15077;49.704;9.908;2022-07-23T11:25:09;31.40;47.80
27671;DHT22;15077;49.704;9.908;2022-07-23T11:27:41;31.50;47.30
27671;DHT22;15077;49.704;9.908;2022-07-23T11:30:12;31.50;46.90
27671;DHT22;15077;49.704;9.908;2022-07-23T11:35:38;31.70;46.70
27671;DHT22;15077;49.704;9.908;2022-07-23T11:38:15;31.80;46.00
27671;DHT22;15077;49.704;9.908;2022-07-23T11:40:48;31.80;46.00
27671;DHT22;15077;49.704;9.908;2022-07-23T11:43:16;31.80;45.60
27671;DHT22;15077;49.704;9.908;2022-07-23T11:45:45;31.90;45.50
27671;DHT22;15077;49.704;9.908;2022-07-23T11:48:23;32.00;45.40
27671;DHT22;15077;49.704;9.908;2022-07-23T11:50:53;32.00;44.80
27671;DHT22;15077;49.704;9.908;2022-07-23T11:53:31;32.00;45.00
27671;DHT22;15077;49.704;9.908;2022-07-23T11:56:06;32.10;45.00
27671;DHT22;15077;49.704;9.908;2022-07-23T11:58:33;32.10;44.90
27671;DHT22;15077;49.704;9.908;2022-07-23T12:01:00;32.10;45.10
27671;DHT22;15077;49.704;9.908;2022-07-23T12:03:26;32.20;45.30
27671;DHT22;15077;49.704;9.908;2022-07-23T12:05:56;32.20;45.40
27671;DHT22;15077;49.704;9.908;2022-07-23T12:08:24;32.30;45.60
27671;DHT22;15077;49.704;9.908;2022-07-23T12:10:50;32.40;44.50
27671;DHT22;15077;49.704;9.908;2022-07-23T12:13:19;32.50;44.20
27671;DHT22;15077;49.704;9.908;2022-07-23T12:15:49;32.60;43.70
27671;DHT22;15077;49.704;9.908;2022-07-23T12:18:22;32.60;43.60
27671;DHT22;15077;49.704;9.908;2022-07-23T12:20:52;32.60;43.70
27671;DHT22;15077;49.704;9.908;2022-07-23T12:23:21;32.60;43.90
27671;DHT22;15077;49.704;9.908;2022-07-23T12:25:50;32.70;44.10
27671;DHT22;15077;49.704;9.908;2022-07-23T12:28:19;32.70;43.30
27671;DHT22;15077;49.704;9.908;2022-07-23T12:30:55;32.70;43.50
27671;DHT22;15077;49.704;9.908;2022-07-23T12:33:27;32.70;43.20
27671;DHT22;15077;49.704;9.908;2022-07-23T12:36:05;32.70;43.40
27671;DHT22;15077;49.704;9.908;2022-07-23T12:38:48;32.70;43.60
27671;DHT22;15077;49.704;9.908;2022-07-23T12:41:14;32.70;43.30
27671;DHT22;15077;49.704;9.908;2022-07-23T12:43:43;32.80;43.20
27671;DHT22;15077;49.704;9.908;2022-07-23T12:46:15;32.80;43.20
27671;DHT22;15077;49.704;9.908;2022-07-23T12:51:26;32.80;43.20
27671;DHT22;15077;49.704;9.908;2022-07-23T12:54:05;32.90;43.30
27671;DHT22;15077;49.704;9.908;2022-07-23T12:56:35;32.90;43.10
27671;DHT22;15077;49.704;9.908;2022-07-23T12:59:11;32.90;43.00
27671;DHT22;15077;49.704;9.908;2022-07-23T13:01:54;32.90;42.80
27671;DHT22;15077;49.704;9.908;2022-07-23T13:04:22;32.80;42.50
27671;DHT22;15077;49.704;9.908;2022-07-23T13:09:22;32.80;42.30
27671;DHT22;15077;49.704;9.908;2022-07-23T13:11:49;32.80;42.30
27671;DHT22;15077;49.704;9.908;2022-07-23T13:14:17;32.80;42.70
27671;DHT22;15077;49.704;9.908;2022-07-23T13:16:45;32.80;42.30
27671;DHT22;15077;49.704;9.908;2022-07-23T13:19:12;32.80;42.20
27671;DHT22;15077;49.704;9.908;2022-07-23T13:21:39;32.80;42.30
27671;DHT22;15077;49.704;9.908;2022-07-23T13:24:06;32.70;42.50
27671;DHT22;15077;49.704;9.908;2022-07-23T13:26:33;32.70;42.30
27671;DHT22;15077;49.704;9.908;2022-07-23T13:28:59;32.70;42.10
27671;DHT22;15077;49.704;9.908;2022-07-23T13:31:26;32.70;42.10
27671;DHT22;15077;49.704;9.908;2022-07-23T13:33:51;32.70;41.90
27671;DHT22;15077;49.704;9.908;2022-07-23T13:36:17;32.70;42.10
27671;DHT22;15077;49.704;9.908;2022-07-23T13:38:43;32.80;42.30
27671;DHT22;15077;49.704;9.908;2022-07-23T13:41:09;32.80;42.10
27671;DHT22;15077;49.704;9.908;2022-07-23T13:43:35;32.90;41.50
27671;DHT22;15077;49.704;9.908;2022-07-23T13:46:01;32.90;41.40
27671;DHT22;15077;49.704;9.908;2022-07-23T13:48:27;33.00;41.70
27671;DHT22;15077;49.704;9.908;2022-07-23T13:50:54;33.00;41.30
27671;DHT22;15077;49.704;9.908;2022-07-23T13:53:23;33.00;41.20
27671;DHT22;15077;49.704;9.908;2022-07-23T13:55:50;33.00;40.80
27671;DHT22;15077;49.704;9.908;2022-07-23T13:58:18;33.10;40.70
27671;DHT22;15077;49.704;9.908;2022-07-23T14:00:46;33.10;40.70
27671;DHT22;15077;49.704;9.908;2022-07-23T14:03:14;33.10;40.60
27671;DHT22;15077;49.704;9.908;2022-07-23T14:05:42;33.20;40.60
27671;DHT22;15077;49.704;9.908;2022-07-23T14:08:08;33.20;40.30
27671;DHT22;15077;49.704;9.908;2022-07-23T14:10:34;33.20;39.90
27671;DHT22;15077;49.704;9.908;2022-07-23T14:13:00;33.20;39.60
27671;DHT22;15077;49.704;9.908;2022-07-23T14:15:28;33.30;39.70
27671;DHT22;15077;49.704;9.908;2022-07-23T14:17:55;33.30;39.90
27671;DHT22;15077;49.704;9.908;2022-07-23T14:20:22;33.20;39.60
27671;DHT22;15077;49.704;9.908;2022-07-23T14:22:48;33.20;39.60
27671;DHT22;15077;49.704;9.908;2022-07-23T14:25:15;33.10;39.40
27671;DHT22;15077;49.704;9.908;2022-07-23T14:27:41;33.10;39.20
27671;DHT22;15077;49.704;9.908;2022-07-23T14:30:08;33.00;39.20
27671;DHT22;15077;49.704;9.908;2022-07-23T14:32:35;33.00;39.30
27671;DHT22;15077;49.704;9.908;2022-07-23T14:35:02;33.00;39.30
27671;DHT22;15077;49.704;9.908;2022-07-23T14:37:29;32.90;39.10
27671;DHT22;15077;49.704;9.908;2022-07-23T14:39:54;32.80;38.80
27671;DHT22;15077;49.704;9.908;2022-07-23T14:42:20;32.80;38.70
27671;DHT22;15077;49.704;9.908;2022-07-23T14:44:46;32.70;38.60
27671;DHT22;15077;49.704;9.908;2022-07-23T14:47:12;32.60;38.80
27671;DHT22;15077;49.704;9.908;2022-07-23T14:49:38;32.60;38.50
27671;DHT22;15077;49.704;9.908;2022-07-23T14:52:05;32.60;39.30
27671;DHT22;15077;49.704;9.908;2022-07-23T14:54:32;32.60;38.90
27671;DHT22;15077;49.704;9.908;2022-07-23T14:56:59;32.60;39.50
27671;DHT22;15077;49.704;9.908;2022-07-23T14:59:26;32.60;39.50
27671;DHT22;15077;49.704;9.908;2022-07-23T15:01:53;32.60;39.30
27671;DHT22;15077;49.704;9.908;2022-07-23T15:04:19;32.80;39.50
27671;DHT22;15077;49.704;9.908;2022-07-23T15:06:45;32.80;39.40
27671;DHT22;15077;49.704;9.908;2022-07-23T15:09:11;32.80;39.30
27671;DHT22;15077;49.704;9.908;2022-07-23T15:11:37;32.90;39.30
27671;DHT22;15077;49.704;9.908;2022-07-23T15:14:07;33.00;39.40
27671;DHT22;15077;49.704;9.908;2022-07-23T15:16:33;33.10;39.20
27671;DHT22;15077;49.704;9.908;2022-07-23T15:19:00;33.20;39.00
27671;DHT22;15077;49.704;9.908;2022-07-23T15:21:28;33.20;38.90
27671;DHT22;15077;49.704;9.908;2022-07-23T15:23:55;33.40;38.90
27671;DHT22;15077;49.704;9.908;2022-07-23T15:26:25;33.40;38.50
27671;DHT22;15077;49.704;9.908;2022-07-23T15:28:52;33.40;38.70
27671;DHT22;15077;49.704;9.908;2022-07-23T15:31:18;33.50;38.50
27671;DHT22;15077;49.704;9.908;2022-07-23T15:33:44;33.50;38.20
27671;DHT22;15077;49.704;9.908;2022-07-23T15:36:09;33.60;38.20
27671;DHT22;15077;49.704;9.908;2022-07-23T15:38:35;33.60;38.20
27671;DHT22;15077;49.704;9.908;2022-07-23T15:41:01;33.60;37.80
27671;DHT22;15077;49.704;9.908;2022-07-23T15:43:27;33.70;37.50
27671;DHT22;15077;49.704;9.908;2022-07-23T15:45:53;33.80;37.00
27671;DHT22;15077;49.704;9.908;2022-07-23T15:48:20;33.70;37.20
27671;DHT22;15077;49.704;9.908;2022-07-23T15:50:47;33.80;36.70
27671;DHT22;15077;49.704;9.908;2022-07-23T15:53:14;33.70;36.30
27671;DHT22;15077;49.704;9.908;2022-07-23T15:55:41;33.70;36.50
27671;DHT22;15077;49.704;9.908;2022-07-23T15:58:10;33.60;36.80
27671;DHT22;15077;49.704;9.908;2022-07-23T16:00:37;33.60;36.40
27671;DHT22;15077;49.704;9.908;2022-07-23T16:03:03;33.70;36.50
27671;DHT22;15077;49.704;9.908;2022-07-23T16:05:28;33.60;36.00
27671;DHT22;15077;49.704;9.908;2022-07-23T16:07:56;33.60;36.10
27671;DHT22;15077;49.704;9.908;2022-07-23T16:10:22;33.50;36.20